Time;durP1;ratioP1;P1;durP2;ratioP2;P2;SDS_P1;SDS_P2;PMS_P1;PMS_P2;Temp;Humidity;BMP_temperature;BMP_pressure;BME280_temperature;BME280_humidity;BME280_pressure;Samples;Min_cycle;Max_cycle;Signal;HPM_P1;HPM_P2
2022/06/28 00:01:13;;;;;;;6.28;5.67;;;;;;;23.13;58.19;100779.09;1681742;85;25690;-80
2022/06/28 00:03:42;;;;;;;11.08;6.62;;;;;;;23.08;58.18;100779.05;1680677;85;26088;-80
2022/06/28 00:06:09;;;;;;;8.28;6.78;;;;;;;23.07;58.38;100782.06;1681732;83;25914;-81
2022/06/28 00:08:38;;;;;;;8.03;6.53;;;;;;;23.03;58.37;100786.67;1681413;84;25985;-81
2022/06/28 00:11:10;;;;;;;7.53;6.62;;;;;;;23.01;58.61;100790.21;1681619;85;26369;-81
2022/06/28 00:13:37;;;;;;;10.88;6.33;;;;;;;23.00;58.73;100795.41;1681461;84;25953;-81
2022/06/28 00:16:06;;;;;;;9.40;6.47;;;;;;;22.99;58.73;100795.12;1681773;83;27446;-81
2022/06/28 00:18:37;;;;;;;8.68;6.72;;;;;;;22.98;58.79;100795.39;1681757;85;26011;-81
2022/06/28 00:21:08;;;;;;;;;;;;;;;22.94;58.94;100792.91;1684625;85;25841;-81
2022/06/28 00:23:37;;;;;;;9.55;8.28;;;;;;;22.86;59.28;100793.41;1682001;85;25939;-80
2022/06/28 00:26:06;;;;;;;10.20;8.35;;;;;;;22.79;59.33;100788.70;1681559;83;25516;-81
2022/06/28 00:28:32;;;;;;;10.80;7.53;;;;;;;22.76;59.46;100783.75;1681697;85;27462;-80
2022/06/28 00:30:59;;;;;;;9.88;6.97;;;;;;;22.74;59.55;100787.29;1681570;85;25906;-80
2022/06/28 00:33:25;;;;;;;7.45;6.75;;;;;;;22.74;59.66;100787.29;1681607;85;25907;-80
2022/06/28 00:35:51;;;;;;;10.40;7.42;;;;;;;22.74;59.75;100792.75;1681559;83;26070;-81
2022/06/28 00:38:19;;;;;;;7.53;6.83;;;;;;;22.71;59.76;100786.47;1681981;84;25791;-80
2022/06/28 00:40:50;;;;;;;13.43;7.47;;;;;;;22.69;59.94;100793.53;1682144;84;27435;-81
2022/06/28 00:43:19;;;;;;;12.07;7.60;;;;;;;22.68;60.13;100802.00;1681376;85;25764;-81
2022/06/28 00:45:47;;;;;;;10.58;6.85;;;;;;;22.65;60.09;100799.23;1670136;83;25960;-81
2022/06/28 00:48:16;;;;;;;8.75;6.55;;;;;;;22.64;60.09;100802.23;1670692;85;26626;-81
2022/06/28 00:50:43;;;;;;;7.60;6.65;;;;;;;22.63;60.25;100801.41;1668432;85;25766;-81
2022/06/28 00:53:16;;;;;;;10.18;6.85;;;;;;;22.63;60.39;100804.14;1670579;85;27465;-81
2022/06/28 00:55:44;;;;;;;7.42;6.70;;;;;;;22.63;60.47;100801.95;1673441;83;26106;-80
2022/06/28 00:58:13;;;;;;;9.15;7.20;;;;;;;22.62;60.53;100800.31;1666424;85;26578;-80
2022/06/28 01:00:43;;;;;;;10.45;6.83;;;;;;;22.56;60.38;100801.33;1674416;84;26064;-80
2022/06/28 01:03:18;;;;;;;7.62;6.95;;;;;;;22.48;60.58;100796.33;1680265;84;25776;-80
2022/06/28 01:05:48;;;;;;;8.93;6.60;;;;;;;22.45;60.92;100803.69;1671952;83;27498;-80
2022/06/28 01:08:15;;;;;;;10.50;7.33;;;;;;;22.43;60.97;100803.13;1652735;85;25769;-80
2022/06/28 01:10:44;;;;;;;9.58;7.70;;;;;;;22.40;60.96;100803.09;1676959;83;25919;-82
2022/06/28 01:13:12;;;;;;;11.38;7.80;;;;;;;22.37;61.13;100805.53;1690196;83;26519;-81
2022/06/28 01:15:41;;;;;;;7.87;7.03;;;;;;;22.34;61.22;100806.03;1683232;83;25885;-80
2022/06/28 01:18:11;;;;;;;11.10;7.50;;;;;;;22.31;61.39;100802.45;1669333;84;27467;-81
2022/06/28 01:20:47;;;;;;;10.58;8.15;;;;;;;22.26;61.50;100801.32;1675857;85;25988;-80
2022/06/28 01:23:20;;;;;;;10.88;8.35;;;;;;;22.26;61.77;100798.59;1658098;84;26697;-81
2022/06/28 01:25:48;;;;;;;8.57;7.40;;;;;;;22.20;61.89;100797.44;1683033;83;27066;-81
2022/06/28 01:28:17;;;;;;;10.20;7.83;;;;;;;22.17;62.09;100803.42;1654778;85;26230;-80
2022/06/28 01:30:47;;;;;;;10.48;7.40;;;;;;;22.14;62.26;100806.13;1646376;85;27465;-81
2022/06/28 01:33:15;;;;;;;8.88;7.65;;;;;;;22.15;62.26;100804.23;1682315;84;26006;-80
2022/06/28 01:35:41;;;;;;;8.95;7.67;;;;;;;22.09;62.47;100800.60;1673594;83;25894;-81
2022/06/28 01:38:10;;;;;;;8.05;7.25;;;;;;;22.06;62.50;100802.50;1680516;85;26576;-81
2022/06/28 01:40:37;;;;;;;7.97;7.28;;;;;;;22.01;62.50;100799.70;1674912;84;26552;-81
2022/06/28 01:43:04;;;;;;;8.18;7.25;;;;;;;21.94;62.61;100803.17;1648326;85;27488;-80
2022/06/28 01:45:32;;;;;;;7.80;7.08;;;;;;;21.88;62.74;100796.55;1670059;83;25723;-81
2022/06/28 01:47:59;;;;;;;11.05;8.30;;;;;;;21.78;62.81;100793.69;1658759;85;25718;-81
2022/06/28 01:50:25;;;;;;;10.40;8.28;;;;;;;21.70;62.97;100789.52;1682132;84;26453;-83
2022/06/28 01:52:52;;;;;;;8.45;7.55;;;;;;;21.69;63.33;100792.48;1687826;83;25987;-82
2022/06/28 01:55:20;;;;;;;8.50;7.70;;;;;;;21.67;63.62;100789.19;1651261;85;27478;-82
2022/06/28 01:57:47;;;;;;;11.38;8.03;;;;;;;21.67;63.70;100783.73;1652531;85;26003;-82
2022/06/28 02:00:15;;;;;;;10.35;7.87;;;;;;;21.66;63.78;100789.75;1662222;85;25770;-82
2022/06/28 02:02:42;;;;;;;8.25;7.35;;;;;;;21.63;63.69;100783.96;1672256;85;26044;-82
2022/06/28 02:05:16;;;;;;;8.58;7.78;;;;;;;21.61;63.87;100784.23;1651075;85;26249;-82
2022/06/28 02:07:49;;;;;;;12.53;8.05;;;;;;;21.60;63.94;100786.66;1681863;85;27614;-82
2022/06/28 02:10:19;;;;;;;9.73;7.87;;;;;;;21.60;63.99;100788.02;1660455;84;26197;-82
2022/06/28 02:12:46;;;;;;;8.70;7.80;;;;;;;21.59;64.17;100795.92;1682765;84;25349;-81
2022/06/28 02:15:14;;;;;;;9.13;7.33;;;;;;;21.55;64.20;100785.78;1683624;83;26704;-81
2022/06/28 02:17:42;;;;;;;9.85;8.70;;;;;;;21.53;64.62;100790.66;1652938;85;25658;-81
2022/06/28 02:20:11;;;;;;;11.43;8.15;;;;;;;21.51;64.91;100793.09;1682577;84;27519;-81
2022/06/28 02:22:37;;;;;;;8.48;7.60;;;;;;;21.48;64.90;100791.42;1681952;84;25903;-81
2022/06/28 02:25:05;;;;;;;8.43;7.62;;;;;;;21.47;65.13;100793.84;1679719;83;25312;-82
2022/06/28 02:27:32;;;;;;;9.68;7.90;;;;;;;21.45;65.09;100793.28;1674636;85;26839;-81
2022/06/28 02:29:59;;;;;;;12.65;7.53;;;;;;;21.41;65.10;100794.86;1657923;84;25954;-82
2022/06/28 02:32:26;;;;;;;9.20;8.10;;;;;;;21.39;65.22;100791.03;1664392;83;27517;-82
2022/06/28 02:40:21;;;;;;;12.90;8.90;;;;;;;21.31;65.71;100806.47;1670496;85;26097;-81
2022/06/28 02:42:49;;;;;;;10.95;7.78;;;;;;;21.27;65.72;100803.97;1671724;83;25453;-81
2022/06/28 02:45:17;;;;;;;11.48;8.98;;;;;;;21.23;65.93;100808.27;1670550;83;28271;-81
2022/06/28 02:47:43;;;;;;;9.90;8.75;;;;;;;21.20;66.22;100812.02;1660936;85;25790;-81
2022/06/28 02:50:11;;;;;;;12.07;9.30;;;;;;;21.17;66.24;100803.00;1658126;85;25582;-81
2022/06/28 02:52:37;;;;;;;13.38;8.75;;;;;;;21.15;66.38;100801.87;1673403;85;26079;-81
2022/06/28 02:55:06;;;;;;;12.15;9.68;;;;;;;21.09;66.45;100802.87;1670180;84;26655;-81
2022/06/28 02:57:34;;;;;;;11.05;9.65;;;;;;;21.06;66.96;100799.84;1672910;85;27727;-81
2022/06/28 03:00:03;;;;;;;11.75;9.08;;;;;;;21.08;67.07;100796.33;1657217;85;25779;-81
2022/06/28 03:02:29;;;;;;;12.60;10.30;;;;;;;21.09;67.07;100795.23;1666146;85;25867;-81
2022/06/28 03:04:55;;;;;;;10.58;9.40;;;;;;;21.08;67.25;100799.05;1652428;85;26526;-81
2022/06/28 03:07:22;;;;;;;12.68;9.13;;;;;;;21.09;67.20;100797.95;1663219;84;25958;-82
2022/06/28 03:09:49;;;;;;;12.07;9.00;;;;;;;21.08;67.34;100801.24;1674733;84;27648;-80
2022/06/28 03:12:15;;;;;;;13.35;8.18;;;;;;;21.07;67.52;100805.03;1683800;84;25831;-80
2022/06/28 03:14:41;;;;;;;10.58;9.53;;;;;;;21.10;67.74;100800.98;1676687;83;25863;-81
2022/06/28 03:17:08;;;;;;;9.98;8.98;;;;;;;21.09;67.81;100791.98;1668267;85;26207;-81
2022/06/28 03:19:36;;;;;;;9.90;8.85;;;;;;;21.14;68.11;100798.88;1682375;84;25775;-80
2022/06/28 03:22:03;;;;;;;11.12;9.30;;;;;;;21.19;68.22;100792.11;1674202;83;26912;-80
2022/06/28 03:24:30;;;;;;;12.33;9.00;;;;;;;21.21;68.29;100799.50;1668238;83;25953;-81
2022/06/28 03:26:56;;;;;;;13.95;9.35;;;;;;;21.25;68.35;100793.86;1670482;84;25830;-81
2022/06/28 03:29:23;;;;;;;12.18;9.10;;;;;;;21.28;68.50;100791.14;1677357;84;26103;-81
2022/06/28 03:31:49;;;;;;;9.75;8.75;;;;;;;21.29;68.56;100803.17;1680486;84;25932;-81
2022/06/28 03:34:17;;;;;;;13.10;8.10;;;;;;;21.34;68.52;100805.14;1674542;83;27440;-81
2022/06/28 03:36:43;;;;;;;12.45;9.03;;;;;;;21.38;68.58;100801.64;1643946;86;26504;-81
2022/06/28 03:39:28;;;;;;;9.58;8.65;;;;;;;21.42;68.58;100796.00;1670850;85;26003;-81
2022/06/28 03:41:55;;;;;;;17.02;9.00;;;;;;;21.50;68.74;100798.80;1681455;84;27128;-82
2022/06/28 03:44:21;;;;;;;9.53;8.60;;;;;;;21.53;68.78;100802.93;1664134;85;25581;-81
2022/06/28 03:46:48;;;;;;;9.80;8.90;;;;;;;21.53;68.98;100798.84;1652984;85;27633;-81
2022/06/28 03:49:25;;;;;;;9.48;8.55;;;;;;;21.52;69.16;100802.09;1614730;86;25971;-80
2022/06/28 03:51:54;;;;;;;9.55;7.97;;;;;;;21.56;69.21;100791.50;1659488;85;25522;-81
2022/06/28 03:54:22;;;;;;;11.63;9.48;;;;;;;21.58;69.34;100791.53;1646206;85;26087;-82
2022/06/28 03:56:50;;;;;;;13.05;9.05;;;;;;;21.58;69.67;100794.27;1652035;85;26053;-80
2022/06/28 03:59:17;;;;;;;12.65;8.78;;;;;;;21.58;69.58;100797.55;1654429;84;27073;-80
2022/06/28 04:01:44;;;;;;;13.50;9.83;;;;;;;21.65;69.96;100795.44;1649029;85;25330;-81
2022/06/28 04:04:10;;;;;;;9.28;8.30;;;;;;;21.68;69.84;100798.50;1641618;85;25994;-80
2022/06/28 04:06:38;;;;;;;10.68;9.58;;;;;;;21.76;69.83;100798.04;1656561;85;26544;-80
2022/06/28 04:09:05;;;;;;;12.00;9.40;;;;;;;21.87;70.09;100793.55;1669597;84;25867;-80
2022/06/28 04:11:32;;;;;;;10.00;8.98;;;;;;;21.96;69.75;100801.00;1664994;85;27916;-80
2022/06/28 04:13:58;;;;;;;9.88;8.90;;;;;;;22.07;69.84;100797.31;1663112;84;25773;-80
2022/06/28 04:16:25;;;;;;;10.98;7.90;;;;;;;22.18;69.73;100790.88;1658922;85;25890;-80
2022/06/28 04:18:54;;;;;;;10.38;9.28;;;;;;;22.31;69.71;100792.36;1678958;84;26843;-80
2022/06/28 04:21:27;;;;;;;11.88;8.58;;;;;;;22.40;69.44;100795.44;1681672;84;26495;-80
2022/06/28 04:23:59;;;;;;;9.93;8.63;;;;;;;22.49;69.35;100790.63;1686337;83;27514;-80
2022/06/28 04:26:25;;;;;;;10.32;9.33;;;;;;;22.60;69.31;100792.92;1688901;84;25883;-80
2022/06/28 04:28:52;;;;;;;13.28;9.38;;;;;;;22.65;69.11;100791.05;1690020;83;25819;-80
2022/06/28 04:31:20;;;;;;;14.15;9.48;;;;;;;22.69;69.04;100790.80;1659675;84;26847;-80
2022/06/28 04:33:46;;;;;;;11.25;9.23;;;;;;;22.73;69.06;100790.55;1643288;85;25907;-80
2022/06/28 04:36:14;;;;;;;13.38;9.08;;;;;;;22.77;69.18;100797.17;1661488;83;27531;-80
2022/06/28 04:38:42;;;;;;;10.32;8.93;;;;;;;22.85;69.11;100787.65;1672172;85;25939;-80
2022/06/28 04:41:10;;;;;;;9.15;8.25;;;;;;;22.92;69.06;100784.16;1670182;84;26062;-80
2022/06/28 04:43:39;;;;;;;10.03;8.18;;;;;;;23.01;69.00;100782.02;1673428;85;26051;-80
2022/06/28 04:46:06;;;;;;;10.65;8.68;;;;;;;23.09;68.96;100777.15;1666728;85;25799;-81
2022/06/28 04:48:33;;;;;;;13.13;8.05;;;;;;;23.16;68.81;100781.84;1649687;85;27463;-80
2022/06/28 04:51:10;;;;;;;10.38;8.70;;;;;;;23.22;68.75;100778.88;1681072;84;26141;-80
2022/06/28 04:53:28;;;;;;;11.57;8.05;;;;;;;23.30;68.80;100772.89;1665027;84;25814;-80
2022/06/28 04:55:54;;;;;;;9.03;7.90;;;;;;;23.42;68.70;100765.86;1662210;85;26532;-80
2022/06/28 04:58:20;;;;;;;9.00;7.62;;;;;;;23.54;68.63;100754.16;1658455;82;25778;-80
2022/06/28 05:00:47;;;;;;;13.13;9.30;;;;;;;23.65;68.26;100758.02;1672451;84;28333;-80
2022/06/28 05:03:15;;;;;;;13.30;8.55;;;;;;;23.73;68.02;100756.69;1652431;86;25813;-80
2022/06/28 05:05:51;;;;;;;12.65;8.80;;;;;;;23.78;67.88;100752.58;1652231;85;25329;-80
2022/06/28 05:08:18;;;;;;;9.48;8.48;;;;;;;23.88;67.54;100730.73;1652492;86;26099;-80
2022/06/28 05:10:52;;;;;;;10.98;8.33;;;;;;;23.97;67.34;100733.22;1651557;86;25815;-80
2022/06/28 05:13:36;;;;;;;10.53;7.85;;;;;;;24.08;67.34;100731.34;1652468;86;27394;-80
2022/06/28 05:16:04;;;;;;;10.53;7.97;;;;;;;24.17;66.64;100735.98;1652333;85;25864;-80
2022/06/28 05:18:30;;;;;;;10.95;7.12;;;;;;;24.23;66.46;100739.57;1652342;86;26147;-80
2022/06/28 05:20:57;;;;;;;8.35;7.42;;;;;;;24.27;66.01;100735.98;1652459;86;26077;-80
2022/06/28 05:23:24;;;;;;;11.57;7.28;;;;;;;24.34;66.13;100737.91;1652586;86;26029;-80
2022/06/28 05:25:54;;;;;;;10.82;7.37;;;;;;;24.44;65.80;100733.00;1652320;85;27448;-80
2022/06/28 05:28:21;;;;;;;10.55;7.28;;;;;;;24.46;65.69;100732.97;1652446;86;25931;-80
2022/06/28 05:30:47;;;;;;;13.90;8.58;;;;;;;24.55;65.74;100733.23;1652568;86;25962;-80
2022/06/28 05:33:13;;;;;;;11.97;7.20;;;;;;;24.64;65.92;100734.33;1652169;86;26137;-80
2022/06/28 05:35:42;;;;;;;8.13;6.78;;;;;;;24.75;65.69;100737.91;1652570;85;25801;-80
2022/06/28 05:38:08;;;;;;;6.83;6.12;;;;;;;24.85;65.20;100742.81;1652901;86;27449;-80
2022/06/28 05:40:34;;;;;;;15.72;6.55;;;;;;;24.95;64.63;100740.62;1652616;85;25898;-80
2022/06/28 05:43:01;;;;;;;8.48;6.83;;;;;;;25.04;64.53;100741.13;1665473;85;26356;-80
2022/06/28 05:45:27;;;;;;;9.70;6.33;;;;;;;25.12;64.14;100734.27;1669880;83;26880;-80
2022/06/28 05:47:54;;;;;;;8.35;6.47;;;;;;;25.21;64.11;100731.22;1671679;85;26434;-80
2022/06/28 05:50:20;;;;;;;9.60;6.90;;;;;;;25.33;64.11;100725.40;1670004;85;27477;-80
2022/06/28 05:52:47;;;;;;;10.00;7.35;;;;;;;25.43;63.61;100731.69;1675541;85;26524;-80
2022/06/28 05:55:14;;;;;;;10.75;6.75;;;;;;;25.51;62.86;100733.87;1657441;84;25873;-80
2022/06/28 05:57:41;;;;;;;8.98;7.42;;;;;;;25.57;62.95;100730.54;1673425;84;26984;-81
2022/06/28 06:00:09;;;;;;;9.95;6.22;;;;;;;25.62;62.88;100734.06;1665807;85;25523;-81
2022/06/28 06:02:37;;;;;;;11.95;6.83;;;;;;;25.66;62.03;100734.34;1669417;84;27703;-80
2022/06/28 06:05:04;;;;;;;6.87;6.20;;;;;;;25.71;62.17;100736.48;1671901;83;25679;-80
2022/06/28 06:07:30;;;;;;;8.28;6.75;;;;;;;25.80;62.79;100733.42;1676101;84;25939;-80
2022/06/28 06:09:57;;;;;;;7.80;6.53;;;;;;;25.90;61.81;100738.02;1676774;85;26076;-80
2022/06/28 06:12:24;;;;;;;8.75;6.10;;;;;;;25.96;61.90;100735.53;1660159;85;25879;-80
2022/06/28 06:14:50;;;;;;;9.45;6.45;;;;;;;26.05;61.34;100741.23;1682639;83;27445;-80
2022/06/28 06:17:16;;;;;;;11.05;6.17;;;;;;;26.11;61.23;100731.88;1658642;84;25822;-80
2022/06/28 06:19:44;;;;;;;8.08;6.42;;;;;;;26.18;60.85;100730.44;1670731;84;25971;-80
2022/06/28 06:22:12;;;;;;;8.53;5.92;;;;;;;26.27;60.60;100734.22;1669558;84;26637;-80
2022/06/28 06:24:39;;;;;;;11.95;5.83;;;;;;;26.33;60.55;100727.56;1682281;83;25814;-80
2022/06/28 06:27:10;;;;;;;6.75;5.80;;;;;;;26.43;60.50;100736.30;1669642;84;27458;-80
2022/06/28 06:29:36;;;;;;;7.95;6.62;;;;;;;26.48;59.82;100741.17;1670234;85;26365;-81
2022/06/28 06:32:06;;;;;;;8.40;5.90;;;;;;;26.54;59.96;100734.52;1655789;83;25788;-80
2022/06/28 06:34:45;;;;;;;6.37;5.70;;;;;;;26.60;59.70;100727.06;1659222;85;26075;-80
2022/06/28 06:37:13;;;;;;;13.83;6.20;;;;;;;26.69;59.80;100728.88;1667645;85;25834;-80
2022/06/28 06:39:39;;;;;;;12.58;7.30;;;;;;;26.74;58.42;100732.99;1667126;85;27440;-80
2022/06/28 06:42:06;;;;;;;8.45;6.28;;;;;;;26.77;58.25;100732.97;1666658;85;25826;-80
2022/06/28 06:44:33;;;;;;;10.65;6.53;;;;;;;26.81;58.46;100725.78;1674407;83;25510;-80
2022/06/28 06:47:01;;;;;;;10.50;6.75;;;;;;;26.90;59.11;100726.80;1667438;85;26071;-81
2022/06/28 06:49:27;;;;;;;9.75;5.92;;;;;;;26.95;58.54;100726.72;1676012;85;25797;-80
2022/06/28 06:51:55;;;;;;;7.62;5.53;;;;;;;27.01;58.76;100737.92;1658043;85;27440;-80
2022/06/28 06:54:21;;;;;;;9.80;7.12;;;;;;;27.10;58.51;100734.80;1653303;85;26037;-80
2022/06/28 06:56:48;;;;;;;7.85;6.30;;;;;;;27.18;57.29;100739.64;1652422;85;25785;-80
2022/06/28 06:59:16;;;;;;;8.38;6.08;;;;;;;27.19;57.10;100745.42;1657437;85;26544;-80
2022/06/28 07:01:43;;;;;;;12.28;6.80;;;;;;;27.23;57.61;100747.02;1661563;85;25811;-80
2022/06/28 07:04:11;;;;;;;6.95;6.25;;;;;;;27.33;58.13;100754.59;1667976;83;28345;-80
2022/06/28 07:06:38;;;;;;;9.13;5.67;;;;;;;27.44;58.33;100752.56;1670676;85;25920;-80
2022/06/28 07:09:04;;;;;;;9.80;6.25;;;;;;;27.55;58.06;100747.75;1681391;85;25695;-80
2022/06/28 07:11:32;;;;;;;11.28;6.45;;;;;;;27.66;57.71;100745.13;1663293;84;26059;-80
2022/06/28 07:13:58;;;;;;;9.15;6.20;;;;;;;27.73;57.71;100740.91;1667077;85;26536;-80
2022/06/28 07:16:24;;;;;;;7.83;6.20;;;;;;;27.81;56.79;100744.92;1653090;83;28111;-79
2022/06/28 07:18:51;;;;;;;7.22;6.55;;;;;;;27.86;56.43;100747.61;1652568;85;26289;-79
2022/06/28 07:21:17;;;;;;;9.78;5.90;;;;;;;27.95;56.83;100750.76;1652613;85;25876;-79
2022/06/28 07:23:44;;;;;;;7.95;5.75;;;;;;;28.07;57.36;100745.67;1652620;86;26062;-80
2022/06/28 07:26:11;;;;;;;11.00;5.90;;;;;;;28.18;56.12;100744.95;1652520;85;25765;-79
2022/06/28 07:28:37;;;;;;;6.65;5.72;;;;;;;28.24;56.11;100756.97;1652802;86;28408;-79
2022/06/28 07:31:04;;;;;;;8.28;5.90;;;;;;;28.33;55.62;100750.22;1652774;86;26483;-79
2022/06/28 07:33:31;;;;;;;9.85;6.03;;;;;;;28.43;55.99;100760.23;1652439;86;25867;-79
2022/06/28 07:35:59;;;;;;;9.38;6.47;;;;;;;28.53;55.55;100756.74;1652492;85;26045;-79
2022/06/28 07:38:29;;;;;;;8.18;5.65;;;;;;;28.61;55.58;100753.91;1652522;86;25817;-79
2022/06/28 07:41:05;;;;;;;7.87;5.62;;;;;;;28.70;54.92;100757.61;1659461;85;27531;-79
2022/06/28 07:43:43;;;;;;;8.70;6.05;;;;;;;28.78;55.18;100758.28;1670148;85;26565;-79
2022/06/28 07:46:13;;;;;;;10.03;5.80;;;;;;;28.87;54.81;100756.47;1671585;83;25296;-79
2022/06/28 07:48:39;;;;;;;6.72;5.05;;;;;;;28.97;54.82;100760.41;1671053;85;26080;-79
2022/06/28 07:53:52;;;;;;;11.43;5.90;;;;;;;29.18;53.60;100756.16;1666158;85;27458;-79
2022/06/28 07:56:30;;;;;;;6.90;4.55;;;;;;;29.29;53.55;100756.22;1652574;85;26016;-79
2022/06/28 07:58:56;;;;;;;8.83;4.83;;;;;;;29.39;53.16;100762.90;1671384;85;25843;-79
2022/06/28 08:01:25;;;;;;;6.12;4.70;;;;;;;29.48;51.91;100757.48;1675355;83;26100;-79
2022/06/28 08:03:53;;;;;;;6.95;4.92;;;;;;;29.55;51.96;100760.65;1667246;83;25827;-79
2022/06/28 08:06:19;;;;;;;5.60;4.75;;;;;;;29.61;51.76;100767.69;1652504;85;27465;-80
2022/06/28 08:08:47;;;;;;;9.63;5.30;;;;;;;29.68;51.50;100773.03;1662530;85;25752;-79
2022/06/28 08:11:14;;;;;;;7.70;5.12;;;;;;;29.77;51.67;100775.91;1671490;85;25817;-79
2022/06/28 08:13:40;;;;;;;8.55;5.22;;;;;;;29.86;50.79;100778.76;1671412;84;26051;-80
2022/06/28 08:16:07;;;;;;;5.05;4.55;;;;;;;29.94;50.03;100775.29;1670088;83;25990;-80
2022/06/28 08:18:34;;;;;;;7.83;3.98;;;;;;;30.00;50.21;100780.39;1676365;84;28279;-79
2022/06/28 08:21:01;;;;;;;8.13;4.83;;;;;;;30.07;50.09;100777.98;1663476;85;25754;-79
2022/06/28 08:23:27;;;;;;;7.70;4.97;;;;;;;30.16;50.08;100780.83;1659347;85;25801;-79
2022/06/28 08:25:54;;;;;;;7.17;4.58;;;;;;;30.25;50.03;100777.58;1658009;83;26286;-79
2022/06/28 08:28:21;;;;;;;5.33;4.33;;;;;;;30.32;50.13;100783.53;1676453;84;25853;-79
2022/06/28 08:30:47;;;;;;;6.87;4.50;;;;;;;30.40;49.51;100781.39;1662805;85;27464;-79
2022/06/28 08:33:13;;;;;;;6.20;4.45;;;;;;;30.41;49.59;100780.27;1682097;84;25936;-79
2022/06/28 08:35:40;;;;;;;11.00;4.95;;;;;;;30.45;49.24;100768.25;1682563;83;25287;-79
2022/06/28 08:38:07;;;;;;;5.33;4.53;;;;;;;30.56;49.76;100769.39;1669900;85;26147;-79
2022/06/28 08:40:35;;;;;;;5.40;4.33;;;;;;;30.63;49.40;100769.74;1669777;83;25895;-79
2022/06/28 08:43:04;;;;;;;6.83;4.33;;;;;;;30.70;49.43;100765.97;1668085;85;27451;-79
2022/06/28 08:45:31;;;;;;;6.55;4.80;;;;;;;30.77;49.48;100766.34;1652342;85;25938;-79
2022/06/28 08:48:03;;;;;;;6.90;4.78;;;;;;;30.86;49.03;100762.52;1677610;85;25868;-79
2022/06/28 08:50:39;;;;;;;7.15;4.80;;;;;;;30.93;48.55;100755.97;1665997;85;26245;-79
2022/06/28 08:53:09;;;;;;;7.15;5.00;;;;;;;31.00;48.44;100762.43;1671699;82;25784;-80
2022/06/28 08:55:37;;;;;;;7.65;5.03;;;;;;;31.01;47.72;100759.89;1652340;85;27474;-79
2022/06/28 08:58:08;;;;;;;5.15;4.62;;;;;;;31.02;47.51;100757.39;1679043;85;25976;-79
2022/06/28 09:00:35;;;;;;;6.80;4.80;;;;;;;30.99;47.93;100761.61;1670273;85;25743;-79
2022/06/28 09:03:03;;;;;;;5.58;4.55;;;;;;;31.04;47.22;100757.33;1669572;85;26108;-79
2022/06/28 09:05:29;;;;;;;4.85;4.17;;;;;;;31.10;46.81;100759.37;1669041;83;25843;-80
2022/06/28 09:07:57;;;;;;;4.70;4.25;;;;;;;31.15;46.38;100755.09;1681276;85;28371;-79
2022/06/28 09:10:24;;;;;;;7.28;4.62;;;;;;;31.16;46.29;100755.32;1666348;85;25891;-79
2022/06/28 09:12:56;;;;;;;7.47;4.70;;;;;;;31.15;46.16;100744.84;1676380;85;25722;-79
2022/06/28 09:15:24;;;;;;;6.65;3.98;;;;;;;31.20;46.00;100743.89;1664277;85;26660;-79
2022/06/28 09:17:55;;;;;;;5.78;4.50;;;;;;;31.28;46.18;100733.97;1652666;85;25366;-79
2022/06/28 09:20:35;;;;;;;5.53;4.97;;;;;;;31.37;46.15;100738.97;1658028;85;27445;-78
2022/06/28 09:23:02;;;;;;;9.28;4.87;;;;;;;31.44;46.16;100738.76;1681045;85;25785;-79
2022/06/28 09:25:31;;;;;;;8.20;4.10;;;;;;;31.55;45.25;100733.73;1683161;83;25783;-79
2022/06/28 09:28:01;;;;;;;10.35;4.80;;;;;;;31.59;45.44;100731.94;1669112;85;27318;-79
2022/06/28 09:30:31;;;;;;;5.83;4.30;;;;;;;31.67;45.65;100727.80;1676708;84;26523;-79
2022/06/28 09:32:59;;;;;;;7.53;4.35;;;;;;;31.70;44.91;100721.63;1652590;85;28299;-79
2022/06/28 09:35:25;;;;;;;8.33;4.65;;;;;;;31.72;45.42;100724.89;1664144;85;25746;-79
2022/06/28 09:37:53;;;;;;;8.08;4.45;;;;;;;31.76;44.55;100730.02;1652287;85;25937;-79
2022/06/28 09:40:26;;;;;;;6.55;4.40;;;;;;;31.70;44.50;100734.09;1671507;85;26089;-79
2022/06/28 09:43:13;;;;;;;12.25;4.53;;;;;;;31.65;44.17;100738.98;1670963;84;26518;-78
2022/06/28 09:45:44;;;;;;;11.22;4.70;;;;;;;31.58;44.16;100739.46;1652449;85;27552;-79
2022/06/28 09:48:21;;;;;;;4.70;4.03;;;;;;;31.55;44.28;100737.88;1668655;85;25897;-79
2022/06/28 09:50:48;;;;;;;5.30;4.28;;;;;;;31.53;44.16;100734.63;1672657;85;26588;-79
2022/06/28 09:53:16;;;;;;;8.05;4.20;;;;;;;31.54;44.09;100736.27;1679628;85;26243;-79
2022/06/28 09:55:43;;;;;;;6.55;4.60;;;;;;;31.63;44.38;100735.72;1672035;83;25793;-79
2022/06/28 09:58:10;;;;;;;6.78;3.62;;;;;;;31.70;44.32;100731.32;1664571;85;27466;-79
2022/06/28 10:00:41;;;;;;;8.65;4.22;;;;;;;31.73;44.16;100739.00;1652460;85;26215;-79
2022/06/28 10:03:07;;;;;;;4.97;4.47;;;;;;;31.78;43.73;100740.77;1681546;85;25309;-79
2022/06/28 10:05:34;;;;;;;4.85;4.03;;;;;;;31.82;44.04;100742.56;1680672;83;26080;-79
2022/06/28 10:08:01;;;;;;;7.28;4.15;;;;;;;31.83;43.94;100735.91;1668385;84;26840;-79
2022/06/28 10:10:28;;;;;;;4.62;3.92;;;;;;;31.81;43.74;100731.82;1658381;85;27465;-80
2022/06/28 10:15:57;;;;;;;5.55;3.90;;;;;;;31.75;43.74;100741.44;1660124;83;25773;-77
2022/06/28 10:18:25;;;;;;;6.05;3.72;;;;;;;31.75;44.40;100736.72;1665824;85;26075;-76
2022/06/28 10:20:53;;;;;;;4.97;3.87;;;;;;;31.75;44.05;100739.48;1678220;84;30966;-76
2022/06/28 10:23:37;;;;;;;4.55;4.00;;;;;;;31.73;44.20;100736.23;1670645;85;27408;-77
2022/06/28 10:26:18;;;;;;;5.08;4.53;;;;;;;31.76;44.86;100735.56;1672293;83;26487;-77
2022/06/28 10:29:03;;;;;;;4.62;3.70;;;;;;;31.79;44.99;100732.72;1668789;85;25475;-76
2022/06/28 10:31:35;;;;;;;5.47;3.95;;;;;;;31.82;44.64;100728.72;1672100;83;26568;-77
2022/06/28 10:34:04;;;;;;;6.10;4.05;;;;;;;31.85;44.43;100729.46;1685961;83;25933;-77
2022/06/28 10:36:42;;;;;;;7.65;4.50;;;;;;;31.86;44.55;100731.08;1679649;83;27476;-76
2022/06/28 10:39:20;;;;;;;7.92;4.83;;;;;;;31.89;44.67;100727.67;1679160;84;25930;-77
2022/06/28 10:41:54;;;;;;;6.92;4.00;;;;;;;31.99;44.92;100724.37;1683374;83;25915;-77
2022/06/28 10:44:26;;;;;;;6.42;4.12;;;;;;;32.09;44.54;100724.03;1653877;85;26075;-76
2022/06/28 10:47:11;;;;;;;7.83;4.17;;;;;;;32.14;44.35;100719.16;1676006;85;25554;-76
2022/06/28 10:49:56;;;;;;;4.62;3.90;;;;;;;32.17;44.00;100720.43;1681807;84;27470;-77
2022/06/28 10:52:34;;;;;;;8.15;4.35;;;;;;;32.15;43.53;100724.11;1669024;85;25817;-76
2022/06/28 10:55:06;;;;;;;5.17;3.90;;;;;;;32.14;43.11;100722.48;1658165;85;25286;-76
2022/06/28 10:57:36;;;;;;;4.92;4.47;;;;;;;32.14;42.97;100722.48;1674620;82;26880;-76
2022/06/28 11:00:12;;;;;;;8.30;5.15;;;;;;;32.14;43.00;100728.86;1678141;85;25792;-77
2022/06/28 11:02:56;;;;;;;5.72;3.72;;;;;;;32.09;42.23;100727.63;1622171;87;27605;-76
2022/06/28 11:05:30;;;;;;;7.25;4.60;;;;;;;32.03;42.58;100728.94;1659448;84;26684;-76
2022/06/28 11:08:02;;;;;;;5.72;4.85;;;;;;;32.02;43.32;100733.40;1664644;85;25972;-76
2022/06/28 11:10:30;;;;;;;7.50;4.83;;;;;;;31.95;43.01;100731.94;1674121;84;26094;-77
2022/06/28 11:13:19;;;;;;;8.95;4.40;;;;;;;31.90;43.04;100738.19;1676068;85;26009;-76
2022/06/28 11:15:46;;;;;;;6.53;4.40;;;;;;;31.85;43.46;100742.49;1675836;85;27481;-76
2022/06/28 11:18:20;;;;;;;5.92;4.55;;;;;;;31.73;43.49;100740.95;1654718;85;26607;-77
2022/06/28 11:20:46;;;;;;;6.72;4.53;;;;;;;31.69;43.27;100746.30;1651972;85;25881;-76
2022/06/28 11:23:29;;;;;;;10.53;4.40;;;;;;;31.64;43.72;100742.31;1676600;82;26915;-76
2022/06/28 11:28:54;;;;;;;9.65;4.65;;;;;;;31.60;44.77;100744.11;1675101;85;27488;-79
2022/06/28 11:31:21;;;;;;;9.20;4.67;;;;;;;31.56;44.50;100746.45;1662593;85;25939;-78
2022/06/28 11:33:48;;;;;;;6.97;4.87;;;;;;;31.51;44.70;100746.03;1675680;84;26526;-79
2022/06/28 11:36:32;;;;;;;5.75;4.65;;;;;;;31.46;44.70;100744.00;1659700;83;26070;-79
2022/06/28 11:39:21;;;;;;;7.00;5.28;;;;;;;31.40;45.09;100750.23;1669608;85;25958;-79
2022/06/28 11:41:54;;;;;;;8.55;4.75;;;;;;;31.33;45.30;100747.67;1658911;84;27454;-80
2022/06/28 11:44:22;;;;;;;5.97;4.60;;;;;;;31.23;45.92;100746.81;1676659;83;26134;-80